createdAt,value
2022-10-11T00:00:05.431Z,12.96
2022-10-11T00:01:05.467Z,12.92
2022-10-11T00:02:05.450Z,12.85
2022-10-11T00:03:05.438Z,12.88
2022-10-11T00:04:05.416Z,12.89
2022-10-11T00:05:05.541Z,13.03
2022-10-11T00:06:05.778Z,13.09
2022-10-11T00:07:05.529Z,13.21
2022-10-11T00:08:05.434Z,13.24
2022-10-11T00:09:05.424Z,13.32
2022-10-11T00:10:05.368Z,13.32
2022-10-11T00:11:05.364Z,13.30
2022-10-11T00:12:05.399Z,13.21
2022-10-11T00:13:05.376Z,13.14
2022-10-11T00:14:05.359Z,12.99
2022-10-11T00:15:05.382Z,12.87
2022-10-11T00:16:05.700Z,12.82
2022-10-11T00:17:05.320Z,12.89
2022-10-11T00:18:05.612Z,12.79
2022-10-11T00:19:06.315Z,12.79
2022-10-11T00:20:05.312Z,12.84
2022-10-11T00:21:05.300Z,12.88
2022-10-11T00:22:05.288Z,12.97
2022-10-11T00:23:05.276Z,12.93
2022-10-11T00:24:05.335Z,12.82
2022-10-11T00:25:05.275Z,12.84
2022-10-11T00:26:05.535Z,12.84
2022-10-11T00:27:05.267Z,12.96
2022-10-11T00:28:05.299Z,12.88
2022-10-11T00:29:05.252Z,12.99
2022-10-11T00:30:05.260Z,12.99
2022-10-11T00:31:05.577Z,12.88
2022-10-11T00:32:05.215Z,12.74
2022-10-11T00:33:05.272Z,12.70
2022-10-11T00:34:05.227Z,12.71
2022-10-11T00:35:05.212Z,12.85
2022-10-11T00:36:05.490Z,12.87
2022-10-11T00:37:05.275Z,12.69
2022-10-11T00:38:05.176Z,12.48
2022-10-11T00:39:05.188Z,12.11
2022-10-11T00:40:05.195Z,11.67
2022-10-11T00:41:05.180Z,11.28
2022-10-11T00:42:05.159Z,10.89
2022-10-11T00:43:05.172Z,10.47
2022-10-11T00:44:05.143Z,10.26
2022-10-11T00:45:05.140Z,10.32
2022-10-11T00:46:05.453Z,10.34
2022-10-11T00:47:05.127Z,10.43
2022-10-11T00:48:05.116Z,10.46
2022-10-11T00:49:05.125Z,10.43
2022-10-11T00:50:05.106Z,10.60
2022-10-11T00:51:05.470Z,10.70
2022-10-11T00:52:05.104Z,10.46
2022-10-11T00:53:05.104Z,10.37
2022-10-11T00:54:05.082Z,10.42
2022-10-11T00:55:05.080Z,10.34
2022-10-11T00:56:05.311Z,10.37
2022-10-11T00:57:05.676Z,10.15
2022-10-11T00:58:05.092Z,10.06
2022-10-11T00:59:05.085Z,10.00
2022-10-11T01:00:05.057Z,9.97
2022-10-11T01:01:05.146Z,9.96
2022-10-11T01:02:05.048Z,10.15
2022-10-11T01:03:05.050Z,10.24
2022-10-11T01:04:05.028Z,10.32
2022-10-11T01:05:27.760Z,10.19
2022-10-11T01:06:07.529Z,10.22
2022-10-11T01:07:05.068Z,10.44
2022-10-11T01:08:05.001Z,10.60
2022-10-11T01:09:05.025Z,10.65
2022-10-11T01:10:05.101Z,10.70
2022-10-11T01:11:05.000Z,10.91
2022-10-11T01:12:04.984Z,10.89
2022-10-11T01:13:04.988Z,10.86
2022-10-11T01:14:04.987Z,10.88
2022-10-11T01:15:04.956Z,10.94
2022-10-11T01:16:05.305Z,10.78
2022-10-11T01:17:04.954Z,10.78
2022-10-11T01:18:04.955Z,10.81
2022-10-11T01:19:04.935Z,10.74
2022-10-11T01:20:04.961Z,10.46
2022-10-11T01:21:04.928Z,10.37
2022-10-11T01:22:04.928Z,10.09
2022-10-11T01:23:04.947Z,9.58
2022-10-11T01:24:08.569Z,9.38
2022-10-11T01:25:05.912Z,9.28
2022-10-11T01:26:05.200Z,9.25
2022-10-11T01:27:04.931Z,9.10
2022-10-11T01:28:04.886Z,9.13
2022-10-11T01:29:04.877Z,9.18
2022-10-11T01:30:04.925Z,9.31
2022-10-11T01:31:04.877Z,9.42
2022-10-11T01:32:04.901Z,9.46
2022-10-11T01:33:04.900Z,9.68
2022-10-11T01:34:04.852Z,9.63
2022-10-11T01:35:04.883Z,9.64
2022-10-11T01:36:05.160Z,9.68
2022-10-11T01:37:04.842Z,9.79
2022-10-11T01:38:05.814Z,9.91
2022-10-11T01:39:04.822Z,10.09
2022-10-11T01:40:04.940Z,10.06
2022-10-11T01:41:04.853Z,10.04
2022-10-11T01:42:04.821Z,10.28
2022-10-11T01:43:04.799Z,10.26
2022-10-11T01:44:04.818Z,9.85
2022-10-11T01:45:04.861Z,9.83
2022-10-11T01:46:05.104Z,9.81
2022-10-11T01:47:04.772Z,9.79
2022-10-11T01:48:04.813Z,9.99
2022-10-11T01:49:04.784Z,9.97
2022-10-11T01:50:04.793Z,10.01
2022-10-11T01:51:04.764Z,9.71
2022-10-11T01:52:04.814Z,9.35
2022-10-11T01:53:04.793Z,9.04
2022-10-11T01:54:04.812Z,8.84
2022-10-11T01:55:09.651Z,8.73
2022-10-11T01:56:07.372Z,8.66
2022-10-11T01:57:04.725Z,8.47
2022-10-11T01:58:04.748Z,8.29
2022-10-11T01:59:04.704Z,8.15
2022-10-11T02:00:04.696Z,8.29
2022-10-11T02:01:04.749Z,8.35
2022-10-11T02:02:04.681Z,8.42
2022-10-11T02:03:04.721Z,8.36
2022-10-11T02:04:04.674Z,8.45
2022-10-11T02:05:04.677Z,8.30
2022-10-11T02:06:04.949Z,8.32
2022-10-11T02:07:04.666Z,8.25
2022-10-11T02:08:04.650Z,8.25
2022-10-11T02:09:08.084Z,8.25
2022-10-11T02:10:05.641Z,8.50
2022-10-11T02:11:04.637Z,8.63
2022-10-11T02:12:04.621Z,8.81
2022-10-11T02:13:04.625Z,8.84
2022-10-11T02:14:04.618Z,8.93
2022-10-11T02:15:04.649Z,9.15
2022-10-11T02:16:04.811Z,9.15
2022-10-11T02:17:05.153Z,9.32
2022-10-11T02:18:04.608Z,9.58
2022-10-11T02:19:04.630Z,9.66
2022-10-11T02:20:04.590Z,9.67
2022-10-11T02:21:04.593Z,9.58
2022-10-11T02:22:04.573Z,9.39
2022-10-11T02:23:04.553Z,9.05
2022-10-11T02:24:04.575Z,8.94
2022-10-11T02:25:04.561Z,8.91
2022-10-11T02:26:04.974Z,8.97
2022-10-11T02:27:04.589Z,9.01
2022-10-11T02:28:04.526Z,9.18
2022-10-11T02:29:04.529Z,9.27
2022-10-11T02:30:04.526Z,9.42
2022-10-11T02:31:04.512Z,9.34
2022-10-11T02:32:04.502Z,9.38
2022-10-11T02:33:04.493Z,9.20
2022-10-11T02:34:04.497Z,8.83
2022-10-11T02:35:04.501Z,8.69
2022-10-11T02:36:04.752Z,8.58
2022-10-11T02:37:04.502Z,8.32
2022-10-11T02:38:04.468Z,8.20
2022-10-11T02:39:04.504Z,8.12
2022-10-11T02:40:04.476Z,8.00
2022-10-11T02:41:04.495Z,7.87
2022-10-11T02:42:04.476Z,7.81
2022-10-11T02:43:04.474Z,7.71
2022-10-11T02:44:04.435Z,7.71
2022-10-11T02:45:04.447Z,7.60
2022-10-11T02:46:04.836Z,7.53
2022-10-11T02:47:04.700Z,7.50
2022-10-11T02:48:04.474Z,7.52
2022-10-11T02:49:04.417Z,7.44
2022-10-11T02:50:04.399Z,7.47
2022-10-11T02:51:04.419Z,7.44
2022-10-11T02:52:04.394Z,7.44
2022-10-11T02:53:04.403Z,7.53
2022-10-11T02:54:04.385Z,7.69
2022-10-11T02:55:04.384Z,7.85
2022-10-11T02:56:04.745Z,7.92
2022-10-11T02:57:04.370Z,7.96
2022-10-11T02:58:04.371Z,8.15
2022-10-11T02:59:04.377Z,8.29
2022-10-11T03:00:04.429Z,8.44
2022-10-11T03:01:04.341Z,8.51
2022-10-11T03:02:04.388Z,8.60
2022-10-11T03:03:04.374Z,8.39
2022-10-11T03:04:05.317Z,8.45
2022-10-11T03:05:04.319Z,8.22
2022-10-11T03:06:04.672Z,7.99
2022-10-11T03:07:04.339Z,7.77
2022-10-11T03:08:04.311Z,7.78
2022-10-11T03:09:04.282Z,7.77
2022-10-11T03:10:05.080Z,7.82
2022-10-11T03:11:04.286Z,7.75
2022-10-11T03:12:04.292Z,7.81
2022-10-11T03:13:04.306Z,7.77
2022-10-11T03:14:04.284Z,7.93
2022-10-11T03:15:04.251Z,7.92
2022-10-11T03:16:04.238Z,7.90
2022-10-11T03:17:31.047Z,7.99
2022-10-11T03:18:06.255Z,8.02
2022-10-11T03:19:04.236Z,7.94
2022-10-11T03:20:04.292Z,7.94
2022-10-11T03:21:04.208Z,7.78
2022-10-11T03:22:04.231Z,7.89
2022-10-11T03:23:04.220Z,7.62
2022-10-11T03:24:04.207Z,7.40
2022-10-11T03:25:04.929Z,7.22
2022-10-11T03:26:05.382Z,7.07
2022-10-11T03:27:04.176Z,7.12
2022-10-11T03:28:04.194Z,7.19
2022-10-11T03:29:04.197Z,7.24
2022-10-11T03:30:04.201Z,7.31
2022-10-11T03:31:04.158Z,7.35
2022-10-11T03:32:04.170Z,7.35
2022-10-11T03:33:04.297Z,7.31
2022-10-11T03:34:04.166Z,7.50
2022-10-11T03:35:04.338Z,7.49
2022-10-11T03:36:04.451Z,7.59
2022-10-11T03:37:04.125Z,7.69
2022-10-11T03:38:04.125Z,7.66
2022-10-11T03:39:04.127Z,7.56
2022-10-11T03:40:04.114Z,7.62
2022-10-11T03:41:04.122Z,7.56
2022-10-11T03:42:04.090Z,7.69
2022-10-11T03:43:04.106Z,7.63
2022-10-11T03:44:04.065Z,7.69
2022-10-11T03:45:04.103Z,7.77
2022-10-11T03:46:04.463Z,7.72
2022-10-11T03:47:04.072Z,7.67
2022-10-11T03:48:04.075Z,7.37
2022-10-11T03:49:04.042Z,7.17
2022-10-11T03:50:04.059Z,7.22
2022-10-11T03:51:04.027Z,7.31
2022-10-11T03:52:04.032Z,7.13
2022-10-11T03:53:04.100Z,7.15
2022-10-11T03:54:04.022Z,6.97
2022-10-11T03:55:04.019Z,6.87
2022-10-11T03:56:08.271Z,6.89
2022-10-11T03:57:04.999Z,7.07
2022-10-11T03:58:03.989Z,7.09
2022-10-11T03:59:03.990Z,7.05
2022-10-11T04:00:03.983Z,7.23
2022-10-11T04:01:04.009Z,7.17
2022-10-11T04:02:04.029Z,7.22
2022-10-11T04:03:03.981Z,7.09
2022-10-11T04:04:03.944Z,7.20
2022-10-11T04:05:03.961Z,7.29
2022-10-11T04:06:04.391Z,7.37
2022-10-11T04:07:03.935Z,7.44
2022-10-11T04:08:06.331Z,7.49
2022-10-11T04:09:04.926Z,7.62
2022-10-11T04:10:03.929Z,7.58
2022-10-11T04:11:03.913Z,7.56
2022-10-11T04:12:03.935Z,7.72
2022-10-11T04:13:03.947Z,7.71
2022-10-11T04:14:03.927Z,7.44
2022-10-11T04:15:03.886Z,7.12
2022-10-11T04:16:04.874Z,6.86
2022-10-11T04:17:03.879Z,6.86
2022-10-11T04:18:03.894Z,6.91
2022-10-11T04:19:04.003Z,6.89
2022-10-11T04:20:03.882Z,6.81
2022-10-11T04:21:04.018Z,6.61
2022-10-11T04:22:03.854Z,6.58
2022-10-11T04:23:03.862Z,6.46
2022-10-11T04:24:03.898Z,6.44
2022-10-11T04:25:03.829Z,6.48
2022-10-11T04:26:04.118Z,6.40
2022-10-11T04:27:03.827Z,6.26
2022-10-11T04:28:03.830Z,6.19
2022-10-11T04:29:03.814Z,6.26
2022-10-11T04:30:03.807Z,6.19
2022-10-11T04:31:03.832Z,6.22
2022-10-11T04:32:03.815Z,6.43
2022-10-11T04:33:03.799Z,6.53
2022-10-11T04:34:03.792Z,6.54
2022-10-11T04:35:04.842Z,6.50
2022-10-11T04:36:05.081Z,6.53
2022-10-11T04:37:03.816Z,6.53
2022-10-11T04:38:03.804Z,6.61
2022-10-11T04:39:03.750Z,6.63
2022-10-11T04:40:03.752Z,6.72
2022-10-11T04:41:03.771Z,6.66
2022-10-11T04:42:03.749Z,6.77
2022-10-11T04:43:03.807Z,6.62
2022-10-11T04:44:03.731Z,6.68
2022-10-11T04:45:03.749Z,6.69
2022-10-11T04:46:03.951Z,6.61
2022-10-11T04:47:03.708Z,6.59
2022-10-11T04:48:03.693Z,6.54
2022-10-11T04:49:03.680Z,6.58
2022-10-11T04:50:03.735Z,6.50
2022-10-11T04:51:03.717Z,6.54
2022-10-11T04:52:03.702Z,6.63
2022-10-11T04:53:03.731Z,6.62
2022-10-11T04:54:03.714Z,6.50
2022-10-11T04:55:03.659Z,6.59
2022-10-11T04:56:04.197Z,6.51
2022-10-11T04:57:03.650Z,6.58
2022-10-11T04:58:03.688Z,6.62
2022-10-11T04:59:03.631Z,6.51
2022-10-11T05:00:03.716Z,6.63
2022-10-11T05:01:03.634Z,6.62
2022-10-11T05:02:03.685Z,6.53
2022-10-11T05:03:04.219Z,6.65
2022-10-11T05:04:03.607Z,6.68
2022-10-11T05:05:35.607Z,6.65
2022-10-11T05:06:05.955Z,6.65
2022-10-11T05:07:04.588Z,6.81
2022-10-11T05:08:03.575Z,6.80
2022-10-11T05:09:03.609Z,6.48
2022-10-11T05:10:03.557Z,6.65
2022-10-11T05:11:04.591Z,6.62
2022-10-11T05:12:03.605Z,6.76
2022-10-11T05:13:03.544Z,6.73
2022-10-11T05:14:03.547Z,6.71
2022-10-11T05:15:03.594Z,6.73
2022-10-11T05:16:07.055Z,6.53
2022-10-11T05:17:05.559Z,6.69
2022-10-11T05:18:03.520Z,6.71
2022-10-11T05:19:03.522Z,6.81
2022-10-11T05:20:03.528Z,6.95
2022-10-11T05:21:03.507Z,7.07
2022-10-11T05:22:03.556Z,7.12
2022-10-11T05:23:03.515Z,7.29
2022-10-11T05:24:03.496Z,7.32
2022-10-11T05:25:03.500Z,7.24
2022-10-11T05:26:03.945Z,7.17
2022-10-11T05:27:03.756Z,7.05
2022-10-11T05:28:03.469Z,7.22
2022-10-11T05:29:03.593Z,7.31
2022-10-11T05:30:03.628Z,7.26
2022-10-11T05:31:03.485Z,7.26
2022-10-11T05:32:03.447Z,7.19
2022-10-11T05:33:03.489Z,7.20
2022-10-11T05:34:03.454Z,7.23
2022-10-11T05:35:03.423Z,7.29
2022-10-11T05:36:03.868Z,7.29
2022-10-11T05:37:03.401Z,7.19
2022-10-11T05:38:03.400Z,7.13
2022-10-11T05:39:03.397Z,7.34
2022-10-11T05:40:03.400Z,7.37
2022-10-11T05:41:03.380Z,7.22
2022-10-11T05:42:07.666Z,7.12
2022-10-11T05:43:04.377Z,7.24
2022-10-11T05:44:04.362Z,7.22
2022-10-11T05:45:03.380Z,7.12
2022-10-11T05:46:03.654Z,7.09
2022-10-11T05:47:03.341Z,7.13
2022-10-11T05:48:03.348Z,7.02
2022-10-11T05:49:03.341Z,7.04
2022-10-11T05:50:03.333Z,7.20
2022-10-11T05:51:03.346Z,7.19
2022-10-11T05:52:03.303Z,7.35
2022-10-11T05:53:03.312Z,7.31
2022-10-11T05:54:03.313Z,7.44
2022-10-11T05:55:03.300Z,7.56
2022-10-11T05:56:03.794Z,7.67
2022-10-11T05:57:03.290Z,7.74
2022-10-11T05:58:03.281Z,7.81
2022-10-11T05:59:04.272Z,7.62
2022-10-11T06:00:03.281Z,7.63
2022-10-11T06:01:03.288Z,7.50
2022-10-11T06:02:03.284Z,7.60
2022-10-11T06:03:03.292Z,7.77
2022-10-11T06:04:03.249Z,7.87
2022-10-11T06:05:03.244Z,7.82
2022-10-11T06:06:03.348Z,7.74
2022-10-11T06:07:03.248Z,7.97
2022-10-11T06:08:03.226Z,7.97
2022-10-11T06:09:03.200Z,8.08
2022-10-11T06:10:03.216Z,8.18
2022-10-11T06:11:03.208Z,8.35
2022-10-11T06:12:03.209Z,8.54
2022-10-11T06:13:03.268Z,8.44
2022-10-11T06:14:03.169Z,8.50
2022-10-11T06:15:03.213Z,8.40
2022-10-11T06:16:03.690Z,8.54
2022-10-11T06:17:03.165Z,8.28
2022-10-11T06:18:03.165Z,8.20
2022-10-11T06:19:03.148Z,8.14
2022-10-11T06:20:03.136Z,8.17
2022-10-11T06:21:03.144Z,8.29
2022-10-11T06:22:03.124Z,8.29
2022-10-11T06:23:03.164Z,8.40
2022-10-11T06:24:03.144Z,8.33
2022-10-11T06:25:03.104Z,8.37
2022-10-11T06:26:03.526Z,8.42
2022-10-11T06:27:03.084Z,8.44
2022-10-11T06:28:03.172Z,8.65
2022-10-11T06:29:03.099Z,8.73
2022-10-11T06:30:03.086Z,8.79
2022-10-11T06:31:03.083Z,8.71
2022-10-11T06:32:03.105Z,8.72
2022-10-11T06:33:04.933Z,8.65
2022-10-11T06:34:04.081Z,8.69
2022-10-11T06:35:03.045Z,8.93
2022-10-11T06:36:03.369Z,8.99
2022-10-11T06:37:03.041Z,9.18
2022-10-11T06:38:03.034Z,9.27
2022-10-11T06:39:03.028Z,9.18
2022-10-11T06:40:03.042Z,9.34
2022-10-11T06:41:03.006Z,9.21
2022-10-11T06:42:03.018Z,9.23
2022-10-11T06:43:03.026Z,9.16
2022-10-11T06:44:03.013Z,9.10
2022-10-11T06:45:02.991Z,8.99
2022-10-11T06:46:03.365Z,9.06
2022-10-11T06:47:03.012Z,9.21
2022-10-11T06:48:02.986Z,9.31
2022-10-11T06:49:02.951Z,9.58
2022-10-11T06:50:02.960Z,9.64
2022-10-11T06:51:02.944Z,9.78
2022-10-11T06:52:02.947Z,9.85
2022-10-11T06:53:02.927Z,9.83
2022-10-11T06:54:02.954Z,9.99
2022-10-11T06:55:02.919Z,10.03
2022-10-11T06:56:03.284Z,10.18
2022-10-11T06:57:02.918Z,10.24
2022-10-11T06:58:02.899Z,10.30
2022-10-11T06:59:02.905Z,10.34
2022-10-11T07:00:02.879Z,10.37
2022-10-11T07:01:03.183Z,10.47
2022-10-11T07:02:02.889Z,10.25
2022-10-11T07:03:02.874Z,10.21
2022-10-11T07:04:02.885Z,10.09
2022-10-11T07:05:02.853Z,9.85
2022-10-11T07:06:03.068Z,10.18
2022-10-11T07:07:02.847Z,10.25
2022-10-11T07:08:02.843Z,10.44
2022-10-11T07:09:02.846Z,10.77
2022-10-11T07:10:02.820Z,10.78
2022-10-11T07:11:02.808Z,11.01
2022-10-11T07:12:02.808Z,11.29
2022-10-11T07:13:02.820Z,11.34
2022-10-11T07:14:02.824Z,11.34
2022-10-11T07:15:02.825Z,11.46
2022-10-11T07:16:03.278Z,11.32
2022-10-11T07:17:02.781Z,11.34
2022-10-11T07:18:02.781Z,11.39
2022-10-11T07:19:02.803Z,11.56
2022-10-11T07:20:02.876Z,11.72
2022-10-11T07:21:02.761Z,11.78
2022-10-11T07:22:02.745Z,11.94
2022-10-11T07:23:02.828Z,12.08
2022-10-11T07:24:02.740Z,12.27
2022-10-11T07:25:02.776Z,12.45
2022-10-11T07:26:03.114Z,12.46
2022-10-11T07:27:02.728Z,12.66
2022-10-11T07:28:02.711Z,13.11
2022-10-11T07:29:02.727Z,13.40
2022-10-11T07:30:03.664Z,13.47
2022-10-11T07:31:02.708Z,13.55
2022-10-11T07:32:02.721Z,13.29
2022-10-11T07:33:02.740Z,12.95
2022-10-11T07:34:02.703Z,12.77
2022-10-11T07:35:02.680Z,13.11
2022-10-11T07:36:03.041Z,13.44
2022-10-11T07:37:02.668Z,13.56
2022-10-11T07:38:02.683Z,13.54
2022-10-11T07:39:02.672Z,13.59
2022-10-11T07:40:02.659Z,13.37
2022-10-11T07:41:02.655Z,13.14
2022-10-11T07:42:02.631Z,13.11
2022-10-11T07:43:02.664Z,12.96
2022-10-11T07:44:02.649Z,13.14
2022-10-11T07:45:02.628Z,12.70
2022-10-11T07:46:02.968Z,12.79
2022-10-11T07:47:02.620Z,13.04
2022-10-11T07:48:02.591Z,13.29
2022-10-11T07:49:02.648Z,13.52
2022-10-11T07:50:02.698Z,13.61
2022-10-11T07:51:02.572Z,14.17
2022-10-11T07:52:02.577Z,15.66
2022-10-11T07:53:02.668Z,16.33
2022-10-11T07:54:07.043Z,16.33
2022-10-11T07:55:03.549Z,16.59
2022-10-11T07:56:03.903Z,17.81
2022-10-11T07:57:02.531Z,18.59
2022-10-11T07:58:02.523Z,19.65
2022-10-11T07:59:02.551Z,20.39
2022-10-11T08:00:02.559Z,20.66
2022-10-11T08:01:02.546Z,21.06
2022-10-11T08:02:02.656Z,21.66
2022-10-11T08:03:02.499Z,21.99
2022-10-11T08:04:02.492Z,22.68
2022-10-11T08:05:02.517Z,23.11
2022-10-11T08:06:02.870Z,23.76
2022-10-11T08:07:02.494Z,23.61
2022-10-11T08:08:02.478Z,23.68
2022-10-11T08:09:02.470Z,24.05
2022-10-11T08:10:02.508Z,24.00
2022-10-11T08:11:02.451Z,24.04
2022-10-11T08:12:02.635Z,23.89
2022-10-11T08:13:04.524Z,24.19
2022-10-11T08:14:03.423Z,23.85
2022-10-11T08:15:02.454Z,24.61
2022-10-11T08:16:02.582Z,25.05
2022-10-11T08:17:02.418Z,24.85
2022-10-11T08:18:02.417Z,24.02
2022-10-11T08:19:02.451Z,23.17
2022-10-11T08:20:02.390Z,23.68
2022-10-11T08:21:02.415Z,23.83
2022-10-11T08:22:02.380Z,22.82
2022-10-11T08:23:02.374Z,23.32
2022-10-11T08:24:02.383Z,23.72
2022-10-11T08:25:02.390Z,23.89
2022-10-11T08:26:02.678Z,23.35
2022-10-11T08:27:02.360Z,23.49
2022-10-11T08:28:02.349Z,23.76
2022-10-11T08:29:02.470Z,23.79
2022-10-11T08:30:02.337Z,22.92
2022-10-11T08:31:02.364Z,20.90
2022-10-11T08:32:02.353Z,19.01
2022-10-11T08:33:07.576Z,18.49
2022-10-11T08:34:04.302Z,17.33
2022-10-11T08:35:02.325Z,16.67
2022-10-11T08:36:02.635Z,16.75
2022-10-11T08:37:02.324Z,17.03
2022-10-11T08:38:02.284Z,18.13
2022-10-11T08:39:02.292Z,19.91
2022-10-11T08:40:02.280Z,19.87
2022-10-11T08:41:02.300Z,17.81
2022-10-11T08:42:02.301Z,17.76
2022-10-11T08:43:02.248Z,17.91
2022-10-11T08:44:02.284Z,17.15
2022-10-11T08:45:11.522Z,17.10
2022-10-11T08:46:04.697Z,17.08
2022-10-11T08:47:02.231Z,16.53
2022-10-11T08:48:02.259Z,16.71
2022-10-11T08:49:02.221Z,16.09
2022-10-11T08:50:02.219Z,15.86
2022-10-11T08:51:02.207Z,16.22
2022-10-11T08:52:02.251Z,16.37
2022-10-11T08:53:02.215Z,16.03
2022-10-11T08:54:07.140Z,15.94
2022-10-11T08:55:04.178Z,15.82
2022-10-11T08:56:02.412Z,15.63
2022-10-11T08:57:02.176Z,15.61
2022-10-11T08:58:02.223Z,15.67
2022-10-11T08:59:02.164Z,15.74
2022-10-11T09:00:02.160Z,15.67
2022-10-11T09:01:02.215Z,15.70
2022-10-11T09:02:02.221Z,15.59
2022-10-11T09:03:10.065Z,15.75
2022-10-11T09:04:04.120Z,15.85
2022-10-11T09:05:02.233Z,15.81
2022-10-11T09:06:02.395Z,15.81
2022-10-11T09:07:04.880Z,15.70
2022-10-11T09:08:03.224Z,15.63
2022-10-11T09:09:02.096Z,15.63
2022-10-11T09:10:02.104Z,15.82
2022-10-11T09:11:02.087Z,15.60
2022-10-11T09:12:02.087Z,15.56
2022-10-11T09:13:02.141Z,15.21
2022-10-11T09:14:02.075Z,15.28
2022-10-11T09:15:02.083Z,15.31
2022-10-11T09:16:02.312Z,14.86
2022-10-11T09:17:02.052Z,15.06
2022-10-11T09:18:02.052Z,14.90
2022-10-11T09:19:02.036Z,15.03
2022-10-11T09:20:02.030Z,15.33
2022-10-11T09:21:02.021Z,15.41
2022-10-11T09:22:02.026Z,15.46
2022-10-11T09:23:02.026Z,15.27
2022-10-11T09:24:02.029Z,15.33
2022-10-11T09:25:01.994Z,15.31
2022-10-11T09:26:02.202Z,15.48
2022-10-11T09:27:01.994Z,15.57
2022-10-11T09:28:03.473Z,15.59
2022-10-11T09:29:03.027Z,15.59
2022-10-11T09:30:01.984Z,15.59
2022-10-11T09:31:01.989Z,15.63
2022-10-11T09:32:01.949Z,15.75
2022-10-11T09:33:01.942Z,15.66
2022-10-11T09:34:01.967Z,15.59
2022-10-11T09:35:01.941Z,15.52
2022-10-11T09:36:02.069Z,15.46
2022-10-11T09:37:01.941Z,15.51
2022-10-11T09:38:01.924Z,15.46
2022-10-11T09:39:06.324Z,15.15
2022-10-11T09:40:02.917Z,14.84
2022-10-11T09:41:01.945Z,15.05
2022-10-11T09:42:01.929Z,15.17
2022-10-11T09:43:01.928Z,15.26
2022-10-11T09:44:01.910Z,15.48
2022-10-11T09:45:01.881Z,15.52
2022-10-11T09:46:02.174Z,15.36
2022-10-11T09:47:01.877Z,15.49
2022-10-11T09:48:01.880Z,15.85
2022-10-11T09:49:01.897Z,15.86
2022-10-11T09:50:01.852Z,16.07
2022-10-11T09:51:01.833Z,16.20
2022-10-11T09:52:01.866Z,15.99
2022-10-11T09:53:01.952Z,15.99
2022-10-11T09:54:01.852Z,15.89
2022-10-11T09:55:01.831Z,15.63
2022-10-11T09:56:02.038Z,15.52
2022-10-11T09:57:01.824Z,16.15
2022-10-11T09:58:01.803Z,16.15
2022-10-11T09:59:01.850Z,16.20
2022-10-11T10:00:01.852Z,16.52
2022-10-11T10:01:07.318Z,16.71
2022-10-11T10:02:03.851Z,16.99
2022-10-11T10:03:01.767Z,17.28
2022-10-11T10:04:01.774Z,17.73
2022-10-11T10:05:01.774Z,17.95
2022-10-11T10:06:01.882Z,18.36
2022-10-11T10:07:01.753Z,17.48
2022-10-11T10:08:04.706Z,17.53
2022-10-11T10:09:02.734Z,17.25
2022-10-11T10:10:01.748Z,17.23
2022-10-11T10:11:01.769Z,17.35
2022-10-11T10:12:01.716Z,18.07
2022-10-11T10:13:01.749Z,18.61
2022-10-11T10:14:01.751Z,19.87
2022-10-11T10:15:01.704Z,20.02
2022-10-11T10:16:01.809Z,18.33
2022-10-11T10:17:01.686Z,17.26
2022-10-11T10:18:01.692Z,16.92
2022-10-11T10:19:01.705Z,17.10
2022-10-11T10:20:01.663Z,17.44
2022-10-11T10:21:01.693Z,19.39
2022-10-11T10:22:01.668Z,21.24
2022-10-11T10:23:01.687Z,22.38
2022-10-11T10:24:01.636Z,23.57
2022-10-11T10:25:01.644Z,24.77
2022-10-11T10:26:01.637Z,25.77
2022-10-11T10:27:01.609Z,25.71
2022-10-11T10:28:01.618Z,24.91
2022-10-11T10:29:02.595Z,25.59
2022-10-11T10:30:01.609Z,26.15
2022-10-11T10:31:01.600Z,26.35
2022-10-11T10:32:13.900Z,25.22
2022-10-11T10:33:03.577Z,24.12
2022-10-11T10:34:01.594Z,24.27
2022-10-11T10:35:01.587Z,23.02
2022-10-11T10:36:01.662Z,22.72
2022-10-11T10:37:01.554Z,22.17
2022-10-11T10:38:01.556Z,21.51
2022-10-11T10:39:01.560Z,22.23
2022-10-11T10:40:01.599Z,22.82
2022-10-11T10:41:01.527Z,24.12
2022-10-11T10:42:01.560Z,24.52
2022-10-11T10:43:01.514Z,23.42
2022-10-11T10:44:01.512Z,23.94
2022-10-11T10:45:01.533Z,23.92
2022-10-11T10:46:01.563Z,23.08
2022-10-11T10:47:01.587Z,22.87
2022-10-11T10:48:01.488Z,21.59
2022-10-11T10:49:34.402Z,22.17
2022-10-11T10:50:12.631Z,23.17
2022-10-11T10:51:01.513Z,23.57
2022-10-11T10:52:01.456Z,23.82
2022-10-11T10:53:01.454Z,24.69
2022-10-11T10:54:01.449Z,23.87
2022-10-11T10:55:01.465Z,23.55
2022-10-11T10:56:01.481Z,23.82
2022-10-11T10:57:01.447Z,24.91
2022-10-11T10:58:01.471Z,25.54
2022-10-11T10:59:01.423Z,26.55
2022-10-11T11:00:01.412Z,27.42
2022-10-11T11:01:01.414Z,27.53
2022-10-11T11:02:15.906Z,27.17
2022-10-11T11:03:03.470Z,26.39
2022-10-11T11:04:01.417Z,26.83
2022-10-11T11:05:01.382Z,26.36
2022-10-11T11:06:01.471Z,25.82
2022-10-11T11:07:01.420Z,25.35
2022-10-11T11:08:01.375Z,25.30
2022-10-11T11:09:01.381Z,26.37
2022-10-11T11:10:01.359Z,25.82
2022-10-11T11:11:01.367Z,23.62
2022-10-11T11:12:01.363Z,21.98
2022-10-11T11:13:01.359Z,22.82
2022-10-11T11:14:01.355Z,22.97
2022-10-11T11:15:01.383Z,23.09
2022-10-11T11:16:01.323Z,22.25
2022-10-11T11:17:01.323Z,22.02
2022-10-11T11:18:01.368Z,22.60
2022-10-11T11:19:01.322Z,23.11
2022-10-11T11:20:01.298Z,23.52
2022-10-11T11:21:01.290Z,23.98
2022-10-11T11:22:02.202Z,24.71
2022-10-11T11:23:01.310Z,24.10
2022-10-11T11:24:01.296Z,24.38
2022-10-11T11:25:01.271Z,24.87
2022-10-11T11:26:01.339Z,23.26
2022-10-11T11:27:01.262Z,23.64
2022-10-11T11:28:01.255Z,24.45
2022-10-11T11:29:01.344Z,24.92
2022-10-11T11:30:01.246Z,25.37
2022-10-11T11:31:01.232Z,26.21
2022-10-11T11:32:01.228Z,26.55
2022-10-11T11:33:01.239Z,26.89
2022-10-11T11:34:01.267Z,26.32
2022-10-11T11:35:01.218Z,26.59
2022-10-11T11:36:01.199Z,26.83
2022-10-11T11:37:01.191Z,27.16
2022-10-11T11:38:06.056Z,26.22
2022-10-11T11:39:03.227Z,26.52
2022-10-11T11:40:01.194Z,26.24
2022-10-11T11:41:01.171Z,27.10
2022-10-11T11:42:01.176Z,28.38
2022-10-11T11:43:01.150Z,28.60
2022-10-11T11:44:01.179Z,27.36
2022-10-11T11:45:01.139Z,27.66
2022-10-11T11:46:01.131Z,28.04
2022-10-11T11:47:01.127Z,28.82
2022-10-11T11:48:01.170Z,28.38
2022-10-11T11:49:01.106Z,27.31
2022-10-11T11:50:01.131Z,27.48
2022-10-11T11:51:01.102Z,27.02
2022-10-11T11:52:01.102Z,27.26
2022-10-11T11:53:01.074Z,27.94
2022-10-11T11:54:01.098Z,27.39
2022-10-11T11:55:03.967Z,27.43
2022-10-11T11:56:02.064Z,28.14
2022-10-11T11:57:01.635Z,28.25
2022-10-11T11:58:06.038Z,28.41
2022-10-11T11:59:03.060Z,28.93
2022-10-11T12:00:01.038Z,28.73
2022-10-11T12:01:01.042Z,29.13
2022-10-11T12:02:01.064Z,28.87
2022-10-11T12:03:01.027Z,27.47
2022-10-11T12:04:01.014Z,27.06
2022-10-11T12:05:00.995Z,27.64
2022-10-11T12:06:01.008Z,27.66
2022-10-11T12:07:15.434Z,25.07
2022-10-11T12:08:02.972Z,24.23
2022-10-11T12:09:00.960Z,24.04
2022-10-11T12:10:00.960Z,25.22
2022-10-11T12:11:00.968Z,26.06
2022-10-11T12:12:01.860Z,25.09
2022-10-11T12:13:00.953Z,24.90
2022-10-11T12:14:00.935Z,25.64
2022-10-11T12:15:00.918Z,25.57
2022-10-11T12:16:00.931Z,26.62
2022-10-11T12:17:00.912Z,26.25
2022-10-11T12:18:00.903Z,25.67
2022-10-11T12:19:00.919Z,23.86
2022-10-11T12:20:00.898Z,22.90
2022-10-11T12:21:00.891Z,23.53
2022-10-11T12:22:01.767Z,25.05
2022-10-11T12:23:00.874Z,26.22
2022-10-11T12:24:00.878Z,26.39
2022-10-11T12:25:00.879Z,27.23
2022-10-11T12:26:00.835Z,27.67
2022-10-11T12:27:00.854Z,27.82
2022-10-11T12:28:00.825Z,25.71
2022-10-11T12:29:00.874Z,24.45
2022-10-11T12:30:33.250Z,24.19
2022-10-11T12:31:00.821Z,24.52
2022-10-11T12:32:02.874Z,25.49
2022-10-11T12:33:00.793Z,25.20
2022-10-11T12:34:00.952Z,24.47
2022-10-11T12:35:00.815Z,25.67
2022-10-11T12:36:04.062Z,25.22
2022-10-11T12:37:05.945Z,23.71
2022-10-11T12:38:01.762Z,24.67
2022-10-11T12:39:00.748Z,25.79
2022-10-11T12:40:00.764Z,25.13
2022-10-11T12:41:00.753Z,24.14
2022-10-11T12:42:05.191Z,25.35
2022-10-11T12:43:01.751Z,25.54
2022-10-11T12:44:00.739Z,25.69
2022-10-11T12:45:00.730Z,25.28
2022-10-11T12:46:00.725Z,24.69
2022-10-11T12:47:00.700Z,24.05
2022-10-11T12:48:00.684Z,24.41
2022-10-11T12:49:00.685Z,25.52
2022-10-11T12:50:00.668Z,26.72
2022-10-11T12:51:03.113Z,27.39
2022-10-11T12:52:01.661Z,26.17
2022-10-11T12:53:00.666Z,25.06
2022-10-11T12:54:24.948Z,24.92
2022-10-11T12:55:02.677Z,25.75
2022-10-11T12:56:00.640Z,25.87
2022-10-11T12:57:00.616Z,26.37
2022-10-11T12:58:00.643Z,25.59
2022-10-11T12:59:00.615Z,25.79
2022-10-11T13:00:00.687Z,25.87
2022-10-11T13:01:00.666Z,24.69
2022-10-11T13:02:00.639Z,24.23
2022-10-11T13:03:00.676Z,24.44